sensor_id;sensor_type;location;lat;lon;timestamp;temperature;humidity
53962;DHT22;39868;53.398;6.564;2023-08-06T00:00:01;17.60;81.00
53962;DHT22;39868;53.398;6.564;2023-08-06T00:02:34;17.60;81.60
53962;DHT22;39868;53.398;6.564;2023-08-06T00:05:02;17.60;81.10
53962;DHT22;39868;53.398;6.564;2023-08-06T00:07:30;17.60;81.20
53962;DHT22;39868;53.398;6.564;2023-08-06T00:09:57;17.60;81.20
53962;DHT22;39868;53.398;6.564;2023-08-06T00:12:24;17.60;81.20
53962;DHT22;39868;53.398;6.564;2023-08-06T00:14:52;17.60;81.20
53962;DHT22;39868;53.398;6.564;2023-08-06T00:17:19;17.60;81.20
53962;DHT22;39868;53.398;6.564;2023-08-06T00:19:46;17.50;81.20
53962;DHT22;39868;53.398;6.564;2023-08-06T00:22:14;17.60;81.30
53962;DHT22;39868;53.398;6.564;2023-08-06T00:24:41;17.60;81.30
53962;DHT22;39868;53.398;6.564;2023-08-06T00:27:08;17.60;81.30
53962;DHT22;39868;53.398;6.564;2023-08-06T00:29:35;17.50;81.30
53962;DHT22;39868;53.398;6.564;2023-08-06T00:32:03;17.60;81.40
53962;DHT22;39868;53.398;6.564;2023-08-06T00:34:30;17.60;81.40
53962;DHT22;39868;53.398;6.564;2023-08-06T00:36:57;17.50;81.40
53962;DHT22;39868;53.398;6.564;2023-08-06T00:39:24;17.50;81.40
53962;DHT22;39868;53.398;6.564;2023-08-06T00:41:51;17.50;81.50
53962;DHT22;39868;53.398;6.564;2023-08-06T00:44:19;17.50;81.50
53962;DHT22;39868;53.398;6.564;2023-08-06T00:46:46;17.60;81.50
53962;DHT22;39868;53.398;6.564;2023-08-06T00:49:14;17.60;81.60
53962;DHT22;39868;53.398;6.564;2023-08-06T00:51:41;17.60;81.60
53962;DHT22;39868;53.398;6.564;2023-08-06T00:54:09;17.60;81.60
53962;DHT22;39868;53.398;6.564;2023-08-06T00:56:36;17.60;81.70
53962;DHT22;39868;53.398;6.564;2023-08-06T00:59:04;17.60;81.70
53962;DHT22;39868;53.398;6.564;2023-08-06T01:01:32;17.60;81.70
53962;DHT22;39868;53.398;6.564;2023-08-06T01:04:00;17.60;81.80
53962;DHT22;39868;53.398;6.564;2023-08-06T01:06:35;17.60;81.80
53962;DHT22;39868;53.398;6.564;2023-08-06T01:09:50;17.60;81.80
53962;DHT22;39868;53.398;6.564;2023-08-06T01:17:12;17.60;81.80
53962;DHT22;39868;53.398;6.564;2023-08-06T01:19:40;17.60;81.90
53962;DHT22;39868;53.398;6.564;2023-08-06T01:22:07;17.60;81.90
53962;DHT22;39868;53.398;6.564;2023-08-06T01:24:35;17.60;81.90
53962;DHT22;39868;53.398;6.564;2023-08-06T01:27:23;17.60;81.90
53962;DHT22;39868;53.398;6.564;2023-08-06T01:29:56;17.60;82.00
53962;DHT22;39868;53.398;6.564;2023-08-06T01:32:24;17.60;82.00
53962;DHT22;39868;53.398;6.564;2023-08-06T01:34:51;17.60;82.00
53962;DHT22;39868;53.398;6.564;2023-08-06T01:37:20;17.60;82.00
53962;DHT22;39868;53.398;6.564;2023-08-06T01:39:47;17.60;82.00
53962;DHT22;39868;53.398;6.564;2023-08-06T01:42:14;17.60;82.00
53962;DHT22;39868;53.398;6.564;2023-08-06T01:44:41;17.60;82.00
53962;DHT22;39868;53.398;6.564;2023-08-06T01:47:08;17.70;82.10
53962;DHT22;39868;53.398;6.564;2023-08-06T01:49:35;17.70;82.10
53962;DHT22;39868;53.398;6.564;2023-08-06T01:52:03;17.70;82.10
53962;DHT22;39868;53.398;6.564;2023-08-06T01:54:32;17.70;82.20
53962;DHT22;39868;53.398;6.564;2023-08-06T01:56:59;17.70;82.20
53962;DHT22;39868;53.398;6.564;2023-08-06T01:59:26;17.70;82.20
53962;DHT22;39868;53.398;6.564;2023-08-06T02:01:53;17.70;82.20
53962;DHT22;39868;53.398;6.564;2023-08-06T02:04:21;17.70;82.20
53962;DHT22;39868;53.398;6.564;2023-08-06T02:06:48;17.70;82.20
53962;DHT22;39868;53.398;6.564;2023-08-06T02:09:15;17.70;82.20
53962;DHT22;39868;53.398;6.564;2023-08-06T02:11:42;17.60;82.20
53962;DHT22;39868;53.398;6.564;2023-08-06T02:14:10;17.60;82.20
53962;DHT22;39868;53.398;6.564;2023-08-06T02:16:38;17.60;82.20
53962;DHT22;39868;53.398;6.564;2023-08-06T02:19:05;17.60;82.20
53962;DHT22;39868;53.398;6.564;2023-08-06T02:21:32;17.60;82.30
53962;DHT22;39868;53.398;6.564;2023-08-06T02:24:00;17.60;82.30
53962;DHT22;39868;53.398;6.564;2023-08-06T02:26:29;17.60;82.30
53962;DHT22;39868;53.398;6.564;2023-08-06T02:28:56;17.60;82.30
53962;DHT22;39868;53.398;6.564;2023-08-06T02:31:23;17.60;82.30
53962;DHT22;39868;53.398;6.564;2023-08-06T02:33:50;17.60;82.30
53962;DHT22;39868;53.398;6.564;2023-08-06T02:36:17;17.60;82.40
53962;DHT22;39868;53.398;6.564;2023-08-06T02:38:44;17.60;82.40
53962;DHT22;39868;53.398;6.564;2023-08-06T02:41:12;17.50;82.40
53962;DHT22;39868;53.398;6.564;2023-08-06T02:43:39;17.50;82.40
53962;DHT22;39868;53.398;6.564;2023-08-06T02:46:06;17.50;82.40
53962;DHT22;39868;53.398;6.564;2023-08-06T02:48:34;17.50;82.40
53962;DHT22;39868;53.398;6.564;2023-08-06T02:51:01;17.50;82.40
53962;DHT22;39868;53.398;6.564;2023-08-06T02:53:30;17.50;82.40
53962;DHT22;39868;53.398;6.564;2023-08-06T02:56:02;17.50;82.40
53962;DHT22;39868;53.398;6.564;2023-08-06T02:58:58;17.40;82.30
53962;DHT22;39868;53.398;6.564;2023-08-06T03:01:59;17.40;82.50
53962;DHT22;39868;53.398;6.564;2023-08-06T03:04:35;17.40;82.40
53962;DHT22;39868;53.398;6.564;2023-08-06T03:07:03;17.40;82.40
53962;DHT22;39868;53.398;6.564;2023-08-06T03:09:38;17.40;83.00
53962;DHT22;39868;53.398;6.564;2023-08-06T03:12:06;17.40;82.50
53962;DHT22;39868;53.398;6.564;2023-08-06T03:14:33;17.30;82.50
53962;DHT22;39868;53.398;6.564;2023-08-06T03:17:01;17.30;82.50
53962;DHT22;39868;53.398;6.564;2023-08-06T03:19:28;17.30;82.50
53962;DHT22;39868;53.398;6.564;2023-08-06T03:21:56;17.30;82.50
53962;DHT22;39868;53.398;6.564;2023-08-06T03:24:24;17.30;82.60
53962;DHT22;39868;53.398;6.564;2023-08-06T03:26:51;17.30;82.60
53962;DHT22;39868;53.398;6.564;2023-08-06T03:29:18;17.30;82.60
53962;DHT22;39868;53.398;6.564;2023-08-06T03:31:46;17.30;82.60
53962;DHT22;39868;53.398;6.564;2023-08-06T03:34:16;17.30;82.70
53962;DHT22;39868;53.398;6.564;2023-08-06T03:36:43;17.20;82.70
53962;DHT22;39868;53.398;6.564;2023-08-06T03:39:10;17.30;82.80
53962;DHT22;39868;53.398;6.564;2023-08-06T03:41:37;17.30;82.80
53962;DHT22;39868;53.398;6.564;2023-08-06T03:44:05;17.20;82.80
53962;DHT22;39868;53.398;6.564;2023-08-06T03:46:32;17.30;82.80
53962;DHT22;39868;53.398;6.564;2023-08-06T03:49:04;17.30;82.90
53962;DHT22;39868;53.398;6.564;2023-08-06T03:51:31;17.30;83.00
53962;DHT22;39868;53.398;6.564;2023-08-06T03:53:59;17.30;82.90
53962;DHT22;39868;53.398;6.564;2023-08-06T03:56:26;17.30;83.00
53962;DHT22;39868;53.398;6.564;2023-08-06T03:58:54;17.30;83.00
53962;DHT22;39868;53.398;6.564;2023-08-06T04:01:23;17.30;83.00
53962;DHT22;39868;53.398;6.564;2023-08-06T04:03:51;17.30;83.00
53962;DHT22;39868;53.398;6.564;2023-08-06T04:06:19;17.30;83.00
53962;DHT22;39868;53.398;6.564;2023-08-06T04:08:46;17.30;83.00
53962;DHT22;39868;53.398;6.564;2023-08-06T04:11:13;17.30;83.00
53962;DHT22;39868;53.398;6.564;2023-08-06T04:13:44;17.30;83.00
53962;DHT22;39868;53.398;6.564;2023-08-06T04:16:11;17.40;83.10
53962;DHT22;39868;53.398;6.564;2023-08-06T04:18:40;17.40;83.10
53962;DHT22;39868;53.398;6.564;2023-08-06T04:21:07;17.40;83.10
53962;DHT22;39868;53.398;6.564;2023-08-06T04:23:35;17.40;83.10
53962;DHT22;39868;53.398;6.564;2023-08-06T04:26:05;17.40;83.10
53962;DHT22;39868;53.398;6.564;2023-08-06T04:28:34;17.40;83.10
53962;DHT22;39868;53.398;6.564;2023-08-06T04:31:01;17.40;83.10
53962;DHT22;39868;53.398;6.564;2023-08-06T04:33:31;17.40;83.10
53962;DHT22;39868;53.398;6.564;2023-08-06T04:36:02;17.40;83.10
53962;DHT22;39868;53.398;6.564;2023-08-06T04:38:33;17.40;83.10
53962;DHT22;39868;53.398;6.564;2023-08-06T04:41:01;17.40;83.10
53962;DHT22;39868;53.398;6.564;2023-08-06T04:43:29;17.40;83.10
53962;DHT22;39868;53.398;6.564;2023-08-06T04:45:57;17.40;83.10
53962;DHT22;39868;53.398;6.564;2023-08-06T04:48:24;17.40;83.10
53962;DHT22;39868;53.398;6.564;2023-08-06T04:50:51;17.40;83.10
53962;DHT22;39868;53.398;6.564;2023-08-06T04:53:18;17.40;83.20
53962;DHT22;39868;53.398;6.564;2023-08-06T04:55:45;17.40;83.20
53962;DHT22;39868;53.398;6.564;2023-08-06T04:58:12;17.40;83.20
53962;DHT22;39868;53.398;6.564;2023-08-06T05:00:40;17.50;83.30
53962;DHT22;39868;53.398;6.564;2023-08-06T05:03:07;17.50;83.30
53962;DHT22;39868;53.398;6.564;2023-08-06T05:05:34;17.50;83.30
53962;DHT22;39868;53.398;6.564;2023-08-06T05:08:01;17.50;83.30
53962;DHT22;39868;53.398;6.564;2023-08-06T05:10:28;17.50;83.30
53962;DHT22;39868;53.398;6.564;2023-08-06T05:12:56;17.50;83.30
53962;DHT22;39868;53.398;6.564;2023-08-06T05:15:23;17.50;83.30
53962;DHT22;39868;53.398;6.564;2023-08-06T05:17:52;17.50;83.40
53962;DHT22;39868;53.398;6.564;2023-08-06T05:20:20;17.50;83.40
53962;DHT22;39868;53.398;6.564;2023-08-06T05:22:47;17.60;84.00
53962;DHT22;39868;53.398;6.564;2023-08-06T05:25:14;17.60;83.40
53962;DHT22;39868;53.398;6.564;2023-08-06T05:27:41;17.60;83.40
53962;DHT22;39868;53.398;6.564;2023-08-06T05:30:09;17.60;83.50
53962;DHT22;39868;53.398;6.564;2023-08-06T05:32:37;17.60;83.50
53962;DHT22;39868;53.398;6.564;2023-08-06T05:35:04;17.70;83.60
53962;DHT22;39868;53.398;6.564;2023-08-06T05:37:31;17.70;83.60
53962;DHT22;39868;53.398;6.564;2023-08-06T05:39:58;17.70;83.60
53962;DHT22;39868;53.398;6.564;2023-08-06T05:42:25;17.70;83.60
53962;DHT22;39868;53.398;6.564;2023-08-06T05:44:53;17.80;83.70
53962;DHT22;39868;53.398;6.564;2023-08-06T05:47:20;17.80;83.70
53962;DHT22;39868;53.398;6.564;2023-08-06T05:49:47;17.80;83.70
53962;DHT22;39868;53.398;6.564;2023-08-06T05:52:14;17.80;83.70
53962;DHT22;39868;53.398;6.564;2023-08-06T05:54:41;17.90;83.80
53962;DHT22;39868;53.398;6.564;2023-08-06T05:57:08;17.90;83.80
53962;DHT22;39868;53.398;6.564;2023-08-06T05:59:35;18.00;83.90
53962;DHT22;39868;53.398;6.564;2023-08-06T06:02:02;18.00;83.90
53962;DHT22;39868;53.398;6.564;2023-08-06T06:04:29;18.00;83.90
53962;DHT22;39868;53.398;6.564;2023-08-06T06:06:57;18.10;84.00
53962;DHT22;39868;53.398;6.564;2023-08-06T06:09:24;18.10;84.00
53962;DHT22;39868;53.398;6.564;2023-08-06T06:11:51;18.10;84.00
53962;DHT22;39868;53.398;6.564;2023-08-06T06:14:19;18.20;84.00
53962;DHT22;39868;53.398;6.564;2023-08-06T06:16:46;18.30;84.10
53962;DHT22;39868;53.398;6.564;2023-08-06T06:19:13;18.30;84.10
53962;DHT22;39868;53.398;6.564;2023-08-06T06:21:40;18.30;84.10
53962;DHT22;39868;53.398;6.564;2023-08-06T06:24:07;18.40;84.20
53962;DHT22;39868;53.398;6.564;2023-08-06T06:26:35;18.40;84.20
53962;DHT22;39868;53.398;6.564;2023-08-06T06:29:02;18.50;84.20
53962;DHT22;39868;53.398;6.564;2023-08-06T06:31:31;18.50;84.20
53962;DHT22;39868;53.398;6.564;2023-08-06T06:33:58;18.60;84.30
53962;DHT22;39868;53.398;6.564;2023-08-06T06:36:25;18.60;84.30
53962;DHT22;39868;53.398;6.564;2023-08-06T06:38:53;18.60;84.20
53962;DHT22;39868;53.398;6.564;2023-08-06T06:41:21;18.70;84.30
53962;DHT22;39868;53.398;6.564;2023-08-06T06:43:48;18.80;84.30
53962;DHT22;39868;53.398;6.564;2023-08-06T06:46:15;18.80;84.40
53962;DHT22;39868;53.398;6.564;2023-08-06T06:48:42;18.90;84.40
53962;DHT22;39868;53.398;6.564;2023-08-06T06:51:09;18.90;84.40
53962;DHT22;39868;53.398;6.564;2023-08-06T06:53:36;19.00;84.40
53962;DHT22;39868;53.398;6.564;2023-08-06T06:56:04;19.00;84.40
53962;DHT22;39868;53.398;6.564;2023-08-06T06:58:31;19.00;84.40
53962;DHT22;39868;53.398;6.564;2023-08-06T07:00:59;19.10;84.40
53962;DHT22;39868;53.398;6.564;2023-08-06T07:03:26;19.10;84.40
53962;DHT22;39868;53.398;6.564;2023-08-06T07:05:56;19.20;84.40
53962;DHT22;39868;53.398;6.564;2023-08-06T07:08:24;19.20;84.40
53962;DHT22;39868;53.398;6.564;2023-08-06T07:10:51;19.30;84.40
53962;DHT22;39868;53.398;6.564;2023-08-06T07:13:26;19.30;84.40
53962;DHT22;39868;53.398;6.564;2023-08-06T07:15:53;19.30;84.40
53962;DHT22;39868;53.398;6.564;2023-08-06T07:18:21;19.30;84.40
53962;DHT22;39868;53.398;6.564;2023-08-06T07:20:49;19.30;84.40
53962;DHT22;39868;53.398;6.564;2023-08-06T07:23:17;19.40;84.40
53962;DHT22;39868;53.398;6.564;2023-08-06T07:25:44;19.40;84.40
53962;DHT22;39868;53.398;6.564;2023-08-06T07:28:13;19.50;84.40
53962;DHT22;39868;53.398;6.564;2023-08-06T07:30:40;19.50;84.40
53962;DHT22;39868;53.398;6.564;2023-08-06T07:33:07;19.50;84.40
53962;DHT22;39868;53.398;6.564;2023-08-06T07:35:35;19.60;84.50
53962;DHT22;39868;53.398;6.564;2023-08-06T07:38:02;19.60;84.50
53962;DHT22;39868;53.398;6.564;2023-08-06T07:40:29;19.60;84.50
53962;DHT22;39868;53.398;6.564;2023-08-06T07:42:56;19.70;84.50
53962;DHT22;39868;53.398;6.564;2023-08-06T07:45:24;19.70;84.50
53962;DHT22;39868;53.398;6.564;2023-08-06T07:47:51;19.80;84.50
53962;DHT22;39868;53.398;6.564;2023-08-06T07:50:18;19.80;84.50
53962;DHT22;39868;53.398;6.564;2023-08-06T07:52:45;19.90;84.60
53962;DHT22;39868;53.398;6.564;2023-08-06T07:55:12;19.90;84.50
53962;DHT22;39868;53.398;6.564;2023-08-06T07:57:40;20.00;84.60
53962;DHT22;39868;53.398;6.564;2023-08-06T08:00:07;20.00;84.60
53962;DHT22;39868;53.398;6.564;2023-08-06T08:02:38;20.10;84.60
53962;DHT22;39868;53.398;6.564;2023-08-06T08:05:05;20.10;84.60
53962;DHT22;39868;53.398;6.564;2023-08-06T08:07:34;20.20;84.60
53962;DHT22;39868;53.398;6.564;2023-08-06T08:10:02;20.20;84.60
53962;DHT22;39868;53.398;6.564;2023-08-06T08:12:30;20.30;84.60
53962;DHT22;39868;53.398;6.564;2023-08-06T08:14:57;20.30;84.50
53962;DHT22;39868;53.398;6.564;2023-08-06T08:17:24;20.30;84.50
53962;DHT22;39868;53.398;6.564;2023-08-06T08:19:51;20.40;84.50
53962;DHT22;39868;53.398;6.564;2023-08-06T08:22:18;20.40;84.40
53962;DHT22;39868;53.398;6.564;2023-08-06T08:24:45;20.40;84.50
53962;DHT22;39868;53.398;6.564;2023-08-06T08:27:12;20.50;84.50
53962;DHT22;39868;53.398;6.564;2023-08-06T08:29:40;20.50;84.50
53962;DHT22;39868;53.398;6.564;2023-08-06T08:32:07;20.60;84.50
53962;DHT22;39868;53.398;6.564;2023-08-06T08:34:34;20.60;84.50
53962;DHT22;39868;53.398;6.564;2023-08-06T08:37:01;20.60;84.30
53962;DHT22;39868;53.398;6.564;2023-08-06T08:39:28;20.70;84.40
53962;DHT22;39868;53.398;6.564;2023-08-06T08:41:55;20.70;84.30
53962;DHT22;39868;53.398;6.564;2023-08-06T08:44:22;20.80;84.30
53962;DHT22;39868;53.398;6.564;2023-08-06T08:46:55;20.70;84.10
53962;DHT22;39868;53.398;6.564;2023-08-06T08:49:22;20.80;84.10
53962;DHT22;39868;53.398;6.564;2023-08-06T08:51:50;20.80;84.00
53962;DHT22;39868;53.398;6.564;2023-08-06T08:54:20;20.80;83.90
53962;DHT22;39868;53.398;6.564;2023-08-06T08:56:49;20.80;83.80
53962;DHT22;39868;53.398;6.564;2023-08-06T08:59:16;20.80;83.70
53962;DHT22;39868;53.398;6.564;2023-08-06T09:01:43;20.80;83.60
53962;DHT22;39868;53.398;6.564;2023-08-06T09:04:12;20.80;83.60
53962;DHT22;39868;53.398;6.564;2023-08-06T09:06:39;20.80;83.60
53962;DHT22;39868;53.398;6.564;2023-08-06T09:09:10;20.80;83.50
53962;DHT22;39868;53.398;6.564;2023-08-06T09:11:44;20.90;83.50
53962;DHT22;39868;53.398;6.564;2023-08-06T09:14:12;20.90;83.40
53962;DHT22;39868;53.398;6.564;2023-08-06T09:16:39;20.90;83.40
53962;DHT22;39868;53.398;6.564;2023-08-06T09:19:10;20.90;83.30
53962;DHT22;39868;53.398;6.564;2023-08-06T09:21:39;20.90;83.30
53962;DHT22;39868;53.398;6.564;2023-08-06T09:24:11;20.90;83.30
53962;DHT22;39868;53.398;6.564;2023-08-06T09:26:41;20.90;83.30
53962;DHT22;39868;53.398;6.564;2023-08-06T09:29:09;21.00;83.30
53962;DHT22;39868;53.398;6.564;2023-08-06T09:31:42;21.00;83.30
53962;DHT22;39868;53.398;6.564;2023-08-06T09:34:19;21.10;83.30
53962;DHT22;39868;53.398;6.564;2023-08-06T09:36:47;21.10;83.30
53962;DHT22;39868;53.398;6.564;2023-08-06T09:39:15;21.10;83.20
53962;DHT22;39868;53.398;6.564;2023-08-06T09:41:42;21.10;83.10
53962;DHT22;39868;53.398;6.564;2023-08-06T09:44:19;21.20;83.10
53962;DHT22;39868;53.398;6.564;2023-08-06T09:46:52;21.20;83.00
53962;DHT22;39868;53.398;6.564;2023-08-06T09:49:20;21.30;82.90
53962;DHT22;39868;53.398;6.564;2023-08-06T09:51:51;21.30;82.90
53962;DHT22;39868;53.398;6.564;2023-08-06T09:54:24;21.30;82.80
53962;DHT22;39868;53.398;6.564;2023-08-06T09:56:54;21.40;82.80
53962;DHT22;39868;53.398;6.564;2023-08-06T09:59:25;21.40;82.70
53962;DHT22;39868;53.398;6.564;2023-08-06T10:01:53;21.50;82.70
53962;DHT22;39868;53.398;6.564;2023-08-06T10:04:22;21.50;82.50
53962;DHT22;39868;53.398;6.564;2023-08-06T10:06:53;21.50;82.40
53962;DHT22;39868;53.398;6.564;2023-08-06T10:09:20;21.60;82.30
53962;DHT22;39868;53.398;6.564;2023-08-06T10:11:52;21.60;82.20
53962;DHT22;39868;53.398;6.564;2023-08-06T10:14:26;21.60;82.00
53962;DHT22;39868;53.398;6.564;2023-08-06T10:16:55;21.60;81.90
53962;DHT22;39868;53.398;6.564;2023-08-06T10:19:24;21.60;81.70
53962;DHT22;39868;53.398;6.564;2023-08-06T10:24:57;21.60;81.40
53962;DHT22;39868;53.398;6.564;2023-08-06T10:27:33;21.60;81.40
53962;DHT22;39868;53.398;6.564;2023-08-06T10:32:47;21.60;81.30
53962;DHT22;39868;53.398;6.564;2023-08-06T10:35:30;21.60;81.20
53962;DHT22;39868;53.398;6.564;2023-08-06T10:37:58;21.60;81.00
53962;DHT22;39868;53.398;6.564;2023-08-06T10:40:26;21.60;81.00
53962;DHT22;39868;53.398;6.564;2023-08-06T10:42:53;21.60;80.90
53962;DHT22;39868;53.398;6.564;2023-08-06T10:45:20;21.60;80.90
53962;DHT22;39868;53.398;6.564;2023-08-06T10:47:47;21.60;80.80
53962;DHT22;39868;53.398;6.564;2023-08-06T10:50:15;21.60;80.80
53962;DHT22;39868;53.398;6.564;2023-08-06T10:52:46;21.70;81.20
53962;DHT22;39868;53.398;6.564;2023-08-06T10:55:14;21.70;80.50
53962;DHT22;39868;53.398;6.564;2023-08-06T10:57:41;21.70;80.50
53962;DHT22;39868;53.398;6.564;2023-08-06T11:00:08;21.80;80.50
53962;DHT22;39868;53.398;6.564;2023-08-06T11:02:42;21.80;80.40
53962;DHT22;39868;53.398;6.564;2023-08-06T11:05:11;21.90;80.20
53962;DHT22;39868;53.398;6.564;2023-08-06T11:07:39;21.90;80.30
53962;DHT22;39868;53.398;6.564;2023-08-06T11:10:07;21.90;80.20
53962;DHT22;39868;53.398;6.564;2023-08-06T11:12:35;22.00;80.10
53962;DHT22;39868;53.398;6.564;2023-08-06T11:15:03;22.00;80.00
53962;DHT22;39868;53.398;6.564;2023-08-06T11:17:30;22.10;79.90
53962;DHT22;39868;53.398;6.564;2023-08-06T11:20:02;22.10;79.80
53962;DHT22;39868;53.398;6.564;2023-08-06T11:22:29;22.10;79.60
53962;DHT22;39868;53.398;6.564;2023-08-06T11:24:56;22.10;79.30
53962;DHT22;39868;53.398;6.564;2023-08-06T11:27:25;22.20;79.30
53962;DHT22;39868;53.398;6.564;2023-08-06T11:29:53;22.20;79.30
53962;DHT22;39868;53.398;6.564;2023-08-06T11:32:20;22.20;79.10
53962;DHT22;39868;53.398;6.564;2023-08-06T11:34:47;22.30;79.00
53962;DHT22;39868;53.398;6.564;2023-08-06T11:37:14;22.30;78.80
53962;DHT22;39868;53.398;6.564;2023-08-06T11:39:44;22.30;78.70
53962;DHT22;39868;53.398;6.564;2023-08-06T11:42:12;22.40;78.60
53962;DHT22;39868;53.398;6.564;2023-08-06T11:44:40;22.40;78.60
53962;DHT22;39868;53.398;6.564;2023-08-06T11:47:16;22.40;78.50
53962;DHT22;39868;53.398;6.564;2023-08-06T11:49:47;22.40;78.30
53962;DHT22;39868;53.398;6.564;2023-08-06T11:52:16;22.40;78.20
53962;DHT22;39868;53.398;6.564;2023-08-06T11:55:07;22.50;78.10
53962;DHT22;39868;53.398;6.564;2023-08-06T11:57:35;22.50;78.10
53962;DHT22;39868;53.398;6.564;2023-08-06T12:00:06;22.50;77.90
53962;DHT22;39868;53.398;6.564;2023-08-06T12:02:45;22.50;77.90
53962;DHT22;39868;53.398;6.564;2023-08-06T12:05:16;22.50;77.80
53962;DHT22;39868;53.398;6.564;2023-08-06T12:07:45;22.50;77.60
53962;DHT22;39868;53.398;6.564;2023-08-06T12:10:15;22.50;77.50
53962;DHT22;39868;53.398;6.564;2023-08-06T12:12:42;22.50;78.00
53962;DHT22;39868;53.398;6.564;2023-08-06T12:15:09;22.50;77.40
53962;DHT22;39868;53.398;6.564;2023-08-06T12:17:37;22.50;77.30
53962;DHT22;39868;53.398;6.564;2023-08-06T12:20:04;22.50;77.30
53962;DHT22;39868;53.398;6.564;2023-08-06T12:22:35;22.50;77.30
53962;DHT22;39868;53.398;6.564;2023-08-06T12:25:03;22.50;77.20
53962;DHT22;39868;53.398;6.564;2023-08-06T12:27:30;22.50;77.60
53962;DHT22;39868;53.398;6.564;2023-08-06T12:30:00;22.60;77.10
53962;DHT22;39868;53.398;6.564;2023-08-06T12:32:27;22.60;77.00
53962;DHT22;39868;53.398;6.564;2023-08-06T12:34:54;22.60;76.90
53962;DHT22;39868;53.398;6.564;2023-08-06T12:37:21;22.60;76.90
53962;DHT22;39868;53.398;6.564;2023-08-06T12:39:49;22.70;76.90
53962;DHT22;39868;53.398;6.564;2023-08-06T12:42:17;22.70;76.80
53962;DHT22;39868;53.398;6.564;2023-08-06T12:44:44;22.70;76.60
53962;DHT22;39868;53.398;6.564;2023-08-06T12:47:11;22.70;76.60
53962;DHT22;39868;53.398;6.564;2023-08-06T12:49:38;22.80;76.50
53962;DHT22;39868;53.398;6.564;2023-08-06T12:52:05;22.80;76.40
53962;DHT22;39868;53.398;6.564;2023-08-06T12:54:34;22.80;76.20
53962;DHT22;39868;53.398;6.564;2023-08-06T12:57:04;22.80;76.00
53962;DHT22;39868;53.398;6.564;2023-08-06T12:59:32;22.90;76.00
53962;DHT22;39868;53.398;6.564;2023-08-06T13:02:03;22.90;76.00
53962;DHT22;39868;53.398;6.564;2023-08-06T13:04:31;23.00;76.00
53962;DHT22;39868;53.398;6.564;2023-08-06T13:06:58;23.00;75.80
53962;DHT22;39868;53.398;6.564;2023-08-06T13:09:25;23.00;75.80
53962;DHT22;39868;53.398;6.564;2023-08-06T13:11:58;23.00;75.70
53962;DHT22;39868;53.398;6.564;2023-08-06T13:14:27;23.10;75.50
53962;DHT22;39868;53.398;6.564;2023-08-06T13:16:55;23.10;75.40
53962;DHT22;39868;53.398;6.564;2023-08-06T13:19:23;23.20;75.30
53962;DHT22;39868;53.398;6.564;2023-08-06T13:24:17;23.20;75.20
53962;DHT22;39868;53.398;6.564;2023-08-06T13:26:45;23.20;75.00
53962;DHT22;39868;53.398;6.564;2023-08-06T13:29:12;23.30;74.90
53962;DHT22;39868;53.398;6.564;2023-08-06T13:31:39;23.30;74.80
53962;DHT22;39868;53.398;6.564;2023-08-06T13:34:06;23.30;74.70
53962;DHT22;39868;53.398;6.564;2023-08-06T13:36:33;23.30;74.50
53962;DHT22;39868;53.398;6.564;2023-08-06T13:39:01;23.30;74.30
53962;DHT22;39868;53.398;6.564;2023-08-06T13:41:28;23.30;74.10
53962;DHT22;39868;53.398;6.564;2023-08-06T13:43:55;23.40;74.10
53962;DHT22;39868;53.398;6.564;2023-08-06T13:46:22;23.40;74.20
53962;DHT22;39868;53.398;6.564;2023-08-06T13:48:49;23.40;74.20
53962;DHT22;39868;53.398;6.564;2023-08-06T13:51:19;23.40;74.10
53962;DHT22;39868;53.398;6.564;2023-08-06T13:53:46;23.50;74.00
53962;DHT22;39868;53.398;6.564;2023-08-06T13:56:13;23.50;73.80
53962;DHT22;39868;53.398;6.564;2023-08-06T13:58:44;23.50;73.60
53962;DHT22;39868;53.398;6.564;2023-08-06T14:01:12;23.50;73.40
53962;DHT22;39868;53.398;6.564;2023-08-06T14:03:40;23.50;73.30
53962;DHT22;39868;53.398;6.564;2023-08-06T14:06:07;23.50;73.20
53962;DHT22;39868;53.398;6.564;2023-08-06T14:08:34;23.50;73.20
53962;DHT22;39868;53.398;6.564;2023-08-06T14:11:02;23.60;73.30
53962;DHT22;39868;53.398;6.564;2023-08-06T14:13:29;23.60;73.20
53962;DHT22;39868;53.398;6.564;2023-08-06T14:15:56;23.60;73.10
53962;DHT22;39868;53.398;6.564;2023-08-06T14:18:23;23.60;73.10
53962;DHT22;39868;53.398;6.564;2023-08-06T14:20:50;23.70;73.10
53962;DHT22;39868;53.398;6.564;2023-08-06T14:23:17;23.70;73.00
53962;DHT22;39868;53.398;6.564;2023-08-06T14:25:45;23.70;72.90
53962;DHT22;39868;53.398;6.564;2023-08-06T14:28:12;23.80;73.00
53962;DHT22;39868;53.398;6.564;2023-08-06T14:30:39;23.80;73.40
53962;DHT22;39868;53.398;6.564;2023-08-06T14:33:06;23.90;72.70
53962;DHT22;39868;53.398;6.564;2023-08-06T14:35:52;23.90;72.40
53962;DHT22;39868;53.398;6.564;2023-08-06T14:38:19;24.00;72.30
53962;DHT22;39868;53.398;6.564;2023-08-06T14:40:47;24.00;72.10
53962;DHT22;39868;53.398;6.564;2023-08-06T14:43:14;24.00;72.00
53962;DHT22;39868;53.398;6.564;2023-08-06T14:45:41;24.10;72.00
53962;DHT22;39868;53.398;6.564;2023-08-06T14:48:08;24.10;72.00
53962;DHT22;39868;53.398;6.564;2023-08-06T14:50:36;24.20;72.00
53962;DHT22;39868;53.398;6.564;2023-08-06T14:53:03;24.20;71.90
53962;DHT22;39868;53.398;6.564;2023-08-06T14:55:31;24.20;71.70
53962;DHT22;39868;53.398;6.564;2023-08-06T14:58:00;24.30;71.30
53962;DHT22;39868;53.398;6.564;2023-08-06T15:00:27;24.40;71.20
53962;DHT22;39868;53.398;6.564;2023-08-06T15:02:54;24.40;71.10
53962;DHT22;39868;53.398;6.564;2023-08-06T15:05:21;24.50;71.00
53962;DHT22;39868;53.398;6.564;2023-08-06T15:07:49;24.50;70.70
53962;DHT22;39868;53.398;6.564;2023-08-06T15:10:16;24.50;71.20
53962;DHT22;39868;53.398;6.564;2023-08-06T15:12:46;24.50;70.40
53962;DHT22;39868;53.398;6.564;2023-08-06T15:15:13;24.50;70.30
53962;DHT22;39868;53.398;6.564;2023-08-06T15:17:41;24.50;70.30
53962;DHT22;39868;53.398;6.564;2023-08-06T15:20:08;24.50;70.20
53962;DHT22;39868;53.398;6.564;2023-08-06T15:22:35;24.50;70.10
53962;DHT22;39868;53.398;6.564;2023-08-06T15:25:02;24.50;70.10
53962;DHT22;39868;53.398;6.564;2023-08-06T15:27:31;24.50;70.10
53962;DHT22;39868;53.398;6.564;2023-08-06T15:29:59;24.40;70.00
53962;DHT22;39868;53.398;6.564;2023-08-06T15:32:26;24.40;69.90
53962;DHT22;39868;53.398;6.564;2023-08-06T15:34:54;24.30;69.80
53962;DHT22;39868;53.398;6.564;2023-08-06T15:37:22;24.30;69.70
53962;DHT22;39868;53.398;6.564;2023-08-06T15:39:49;24.30;69.70
53962;DHT22;39868;53.398;6.564;2023-08-06T15:42:16;24.30;69.70
53962;DHT22;39868;53.398;6.564;2023-08-06T15:44:43;24.20;69.70
53962;DHT22;39868;53.398;6.564;2023-08-06T15:47:10;24.20;69.70
53962;DHT22;39868;53.398;6.564;2023-08-06T15:49:39;24.20;69.70